createdAt,value
2022-11-10T04:09:53.981Z,59.97
2022-11-10T04:12:57.853Z,60.65
2022-11-10T04:15:44.320Z,70.40
2022-11-10T04:18:30.976Z,64.15
2022-11-10T04:21:17.386Z,64.38
2022-11-10T04:24:03.912Z,63.03
2022-11-10T04:26:52.048Z,59.58
2022-11-10T04:29:38.450Z,62.10
2022-11-10T04:32:24.964Z,70.20
2022-11-10T04:35:11.683Z,53.70
2022-11-10T04:37:58.335Z,56.33
2022-11-10T04:40:44.890Z,60.83
2022-11-10T04:43:33.795Z,61.22
2022-11-10T04:46:24.028Z,67.65
2022-11-10T04:49:11.971Z,57.00
2022-11-10T04:51:58.539Z,59.90
2022-11-10T04:54:45.551Z,70.57
2022-11-10T04:57:32.190Z,66.38
2022-11-10T05:00:20.776Z,71.72
2022-11-10T05:03:09.413Z,65.88
2022-11-10T05:05:55.818Z,62.65
2022-11-10T05:08:43.746Z,65.70
2022-11-10T05:11:30.307Z,61.10
2022-11-10T05:14:17.011Z,59.83
2022-11-10T05:17:05.284Z,66.00
2022-11-10T05:19:52.490Z,61.47
2022-11-10T05:22:39.268Z,58.65
2022-11-10T05:25:26.086Z,60.42
2022-11-10T05:28:13.510Z,69.47
2022-11-10T05:31:00.173Z,62.65
2022-11-10T05:33:48.274Z,70.90
2022-11-10T05:36:34.758Z,70.90
2022-11-10T05:39:21.311Z,67.25
2022-11-10T05:42:07.890Z,67.05
2022-11-10T05:44:54.254Z,72.20
2022-11-10T05:47:41.125Z,73.40
2022-11-10T05:50:29.134Z,73.05
2022-11-10T05:53:15.631Z,68.07
2022-11-10T05:56:02.285Z,72.75
2022-11-10T05:58:48.829Z,69.90
2022-11-10T06:01:35.277Z,73.18
2022-11-10T06:04:21.899Z,77.63
2022-11-10T06:07:09.796Z,77.00
2022-11-10T06:09:57.028Z,86.35
2022-11-10T06:12:43.556Z,84.13
2022-11-10T06:15:30.068Z,81.70
2022-11-10T06:18:16.931Z,94.45
2022-11-10T06:21:03.657Z,95.05
2022-11-10T06:23:51.497Z,90.18
2022-11-10T06:26:38.524Z,105.13
2022-11-10T06:29:27.018Z,93.80
2022-11-10T06:32:13.849Z,94.63
2022-11-10T06:35:01.024Z,105.55
2022-11-10T06:37:57.352Z,105.75
2022-11-10T06:40:45.403Z,95.28
2022-11-10T06:43:32.129Z,97.38
2022-11-10T06:46:18.890Z,108.43
2022-11-10T06:49:05.950Z,98.85
2022-11-10T06:51:53.193Z,92.07
2022-11-10T06:54:40.013Z,92.72
2022-11-10T06:57:27.971Z,84.45
2022-11-10T07:00:16.001Z,86.72
2022-11-10T07:03:03.813Z,98.38
2022-11-10T07:05:50.344Z,93.20
2022-11-10T07:08:36.800Z,86.65
2022-11-10T07:11:23.443Z,93.80
2022-11-10T07:14:11.756Z,95.50
2022-11-10T07:16:58.636Z,100.20
2022-11-10T07:19:45.165Z,99.85
2022-11-10T07:22:31.625Z,93.35
2022-11-10T07:25:18.125Z,96.30
2022-11-10T07:28:07.813Z,95.40
2022-11-10T07:30:56.228Z,94.38
2022-11-10T07:33:44.084Z,88.53
2022-11-10T07:36:30.918Z,91.60
2022-11-10T07:39:17.530Z,96.88
2022-11-10T07:42:04.003Z,98.57
2022-11-10T07:44:50.548Z,82.15
2022-11-10T07:47:38.347Z,96.70
2022-11-10T07:50:24.834Z,90.95
2022-11-10T07:53:13.510Z,91.10
2022-11-10T07:56:00.360Z,86.85
2022-11-10T07:58:48.630Z,98.10
2022-11-10T08:01:35.630Z,80.50
2022-11-10T08:04:24.351Z,95.72
2022-11-10T08:07:10.962Z,82.35
2022-11-10T08:09:58.278Z,88.07
2022-11-10T08:12:44.834Z,81.00
2022-11-10T08:15:32.794Z,88.45
2022-11-10T08:18:21.676Z,82.32
2022-11-10T08:21:09.762Z,85.97
2022-11-10T08:23:56.601Z,79.28
2022-11-10T08:26:43.277Z,78.35
2022-11-10T08:29:30.297Z,74.65
2022-11-10T08:32:16.879Z,82.72
2022-11-10T08:35:03.729Z,88.15
2022-11-10T08:37:51.620Z,82.95
2022-11-10T08:40:39.149Z,90.30
2022-11-10T08:43:26.148Z,86.05
2022-11-10T08:46:13.340Z,76.00
2022-11-10T08:48:59.775Z,80.05
2022-11-10T08:51:46.281Z,79.63
2022-11-10T08:54:34.229Z,79.32
2022-11-10T08:57:21.152Z,74.78
2022-11-10T09:00:09.466Z,78.82
2022-11-10T09:02:56.302Z,81.47
2022-11-10T09:05:43.544Z,73.95
2022-11-10T09:08:33.798Z,80.18
2022-11-10T09:11:21.803Z,74.22
2022-11-10T09:14:08.824Z,75.53
2022-11-10T09:16:55.746Z,78.68
2022-11-10T09:19:42.448Z,72.88
2022-11-10T09:22:29.293Z,71.53
2022-11-10T09:25:15.847Z,73.95
2022-11-10T09:28:03.745Z,70.93
2022-11-10T09:30:51.936Z,68.28
2022-11-10T09:33:38.771Z,67.65
2022-11-10T09:36:25.356Z,75.10
2022-11-10T09:39:11.744Z,70.47
2022-11-10T09:41:58.370Z,71.47
2022-11-10T09:44:55.140Z,76.65
2022-11-10T09:47:57.173Z,70.53
2022-11-10T09:50:48.590Z,74.60
2022-11-10T09:53:40.652Z,76.90
2022-11-10T09:56:33.120Z,76.72
2022-11-10T09:59:25.924Z,70.00
2022-11-10T10:02:25.218Z,74.68
2022-11-10T10:05:36.244Z,66.50
2022-11-10T10:08:39.203Z,78.65
2022-11-10T10:11:41.720Z,72.55
2022-11-10T10:14:42.118Z,79.63
2022-11-10T10:17:41.429Z,66.45
2022-11-10T10:20:37.472Z,72.60
2022-11-10T10:23:53.881Z,61.17
2022-11-10T10:26:42.226Z,69.97
2022-11-10T10:29:37.456Z,66.63
2022-11-10T10:32:24.847Z,59.03
2022-11-10T10:35:16.004Z,58.67
2022-11-10T10:38:05.727Z,62.03
2022-11-10T10:40:56.552Z,65.35
2022-11-10T10:43:48.643Z,55.20
2022-11-10T10:46:45.506Z,64.13
2022-11-10T10:49:33.760Z,57.28
2022-11-10T10:52:25.091Z,57.70
2022-11-10T10:55:14.201Z,58.80
2022-11-10T10:58:02.228Z,56.92
2022-11-10T11:00:51.742Z,54.00
2022-11-10T11:03:44.788Z,55.95
2022-11-10T11:06:32.519Z,55.50
2022-11-10T11:09:24.804Z,55.60
2022-11-10T11:12:14.913Z,51.58
2022-11-10T11:15:14.674Z,53.55
2022-11-10T11:18:03.648Z,50.20
2022-11-10T11:20:58.805Z,52.17
2022-11-10T11:24:11.899Z,48.42
2022-11-10T11:27:05.175Z,45.67
2022-11-10T11:30:10.980Z,53.47
2022-11-10T11:33:29.153Z,50.22
2022-11-10T11:36:26.746Z,44.28
2022-11-10T11:39:27.795Z,45.60
2022-11-10T11:42:32.486Z,42.20
2022-11-10T11:45:25.094Z,43.88
2022-11-10T11:48:33.616Z,37.78
2022-11-10T11:51:28.572Z,39.47
2022-11-10T11:54:27.695Z,37.38
2022-11-10T11:57:25.586Z,38.60
2022-11-10T12:00:16.239Z,34.95
2022-11-10T12:03:40.139Z,40.53
2022-11-10T12:06:37.417Z,32.40
2022-11-10T12:09:33.414Z,35.22
2022-11-10T12:12:50.568Z,37.33
2022-11-10T12:15:44.441Z,31.85
2022-11-10T12:18:34.569Z,34.58
2022-11-10T12:21:26.590Z,35.50
2022-11-10T12:24:46.225Z,30.35
2022-11-10T12:27:37.835Z,32.28
2022-11-10T12:30:25.073Z,33.45
2022-11-10T12:33:19.132Z,34.45
2022-11-10T12:36:09.743Z,43.60
2022-11-10T12:39:02.590Z,29.42
2022-11-10T12:41:54.744Z,31.67
2022-11-10T12:44:57.113Z,30.00
2022-11-10T12:47:45.659Z,30.95
2022-11-10T12:50:47.175Z,25.80
2022-11-10T12:53:38.185Z,24.13
2022-11-10T12:56:29.658Z,24.52
2022-11-10T12:59:32.457Z,25.27
2022-11-10T13:02:27.219Z,22.77
2022-11-10T13:05:26.691Z,23.33
2022-11-10T13:08:27.863Z,22.60
2022-11-10T13:11:36.478Z,22.60
2022-11-10T13:14:26.313Z,26.63
2022-11-10T13:17:52.485Z,28.50
2022-11-10T13:20:52.722Z,27.85
2022-11-10T13:24:19.430Z,26.92
2022-11-10T13:27:11.361Z,24.35
2022-11-10T13:29:59.289Z,28.77
2022-11-10T13:32:45.909Z,29.75
2022-11-10T13:35:55.515Z,28.50
2022-11-10T13:38:44.380Z,26.98
2022-11-10T13:41:35.571Z,25.30
2022-11-10T13:44:29.004Z,26.92
2022-11-10T13:47:44.517Z,23.27
2022-11-10T13:50:44.736Z,24.50
2022-11-10T13:53:43.990Z,21.40
2022-11-10T13:56:47.202Z,25.42
2022-11-10T13:59:45.350Z,27.48
2022-11-10T14:02:53.339Z,25.70
2022-11-10T14:06:05.878Z,25.40
2022-11-10T14:08:56.149Z,22.52
2022-11-10T14:11:50.030Z,23.40
2022-11-10T14:14:48.418Z,24.35
2022-11-10T14:17:40.764Z,24.38
2022-11-10T14:20:31.822Z,25.13
2022-11-10T14:23:34.214Z,23.08
2022-11-10T14:26:36.924Z,23.27
2022-11-10T14:29:39.048Z,28.30
2022-11-10T14:32:29.122Z,26.23
2022-11-10T14:35:22.920Z,29.00
2022-11-10T14:38:20.900Z,28.10
2022-11-10T14:41:15.097Z,24.10
2022-11-10T14:44:05.815Z,24.60
2022-11-10T14:46:52.828Z,27.27
2022-11-10T14:49:40.076Z,27.52
2022-11-10T14:52:27.784Z,25.70
2022-11-10T14:55:18.323Z,26.05
2022-11-10T14:58:18.542Z,27.75
2022-11-10T15:01:08.131Z,27.75
2022-11-10T15:03:55.936Z,27.02
2022-11-10T15:06:47.003Z,26.67
2022-11-10T15:09:35.194Z,27.42
2022-11-10T15:12:24.576Z,27.95
2022-11-10T15:15:22.891Z,27.60
2022-11-10T15:18:25.653Z,30.60
2022-11-10T15:21:14.299Z,41.35
2022-11-10T15:24:03.169Z,37.97
2022-11-10T15:26:50.437Z,37.50
2022-11-10T15:29:38.091Z,38.08
2022-11-10T15:32:33.716Z,33.85
2022-11-10T15:35:30.188Z,40.92
2022-11-10T15:38:33.269Z,55.72
2022-11-10T15:41:27.397Z,48.90
2022-11-10T15:44:17.037Z,41.53
2022-11-10T15:47:03.706Z,42.75
2022-11-10T15:49:50.535Z,46.45
2022-11-10T15:52:39.751Z,42.03
2022-11-10T15:55:27.112Z,45.17
2022-11-10T15:58:15.983Z,37.75
2022-11-10T16:01:03.498Z,42.30
2022-11-10T16:03:51.330Z,48.83
2022-11-10T16:06:38.799Z,47.58
2022-11-10T16:09:27.628Z,72.28
2022-11-10T16:12:18.864Z,69.40
2022-11-10T16:15:06.477Z,70.20
2022-11-10T16:17:53.128Z,73.50
2022-11-10T16:20:40.082Z,74.25
2022-11-10T16:23:27.190Z,61.58
2022-11-10T16:26:17.399Z,61.55
2022-11-10T16:29:04.258Z,63.92
2022-11-10T16:31:52.302Z,80.53
2022-11-10T16:34:39.066Z,70.10
2022-11-10T16:37:25.770Z,73.75
2022-11-10T16:40:15.883Z,82.47
2022-11-10T16:43:04.052Z,71.10
2022-11-10T16:45:53.353Z,68.78
2022-11-10T16:48:40.394Z,63.13
2022-11-10T16:51:30.589Z,65.78
2022-11-10T16:54:17.645Z,66.93
2022-11-10T16:57:11.859Z,65.22
2022-11-10T17:00:00.245Z,57.13
2022-11-10T17:02:55.855Z,57.28
2022-11-10T17:05:42.879Z,59.78
2022-11-10T17:08:31.781Z,46.88
2022-11-10T17:11:19.055Z,52.28
2022-11-10T17:14:07.048Z,60.72
2022-11-10T17:16:57.807Z,59.47
2022-11-10T17:19:44.466Z,54.40
2022-11-10T17:22:34.484Z,53.38
2022-11-10T17:25:27.028Z,56.40
2022-11-10T17:28:14.938Z,56.17
2022-11-10T17:31:03.243Z,51.25
2022-11-10T17:33:52.015Z,50.88
2022-11-10T17:36:39.032Z,45.53
2022-11-10T17:39:26.180Z,49.20
2022-11-10T17:42:14.128Z,47.03
2022-11-10T17:45:01.211Z,40.88
2022-11-10T17:47:49.039Z,55.35
2022-11-10T17:50:39.355Z,47.70
2022-11-10T17:53:28.366Z,44.35
2022-11-10T17:56:15.228Z,52.85
2022-11-10T17:59:01.785Z,50.33
2022-11-10T18:01:48.335Z,49.83
2022-11-10T18:04:35.770Z,54.42
2022-11-10T18:07:24.011Z,50.20
2022-11-10T18:10:13.959Z,49.40
2022-11-10T18:13:00.416Z,48.80
2022-11-10T18:15:48.985Z,53.05
2022-11-10T18:18:35.603Z,49.35
2022-11-10T18:21:22.150Z,46.95
2022-11-10T18:24:10.457Z,43.60
2022-11-10T18:26:57.052Z,51.78
2022-11-10T18:29:44.048Z,57.38
2022-11-10T18:32:30.819Z,51.80
2022-11-10T18:35:17.866Z,54.08
2022-11-10T18:38:04.593Z,49.83
2022-11-10T18:40:53.603Z,57.28
2022-11-10T18:43:40.815Z,64.97
2022-11-10T18:46:27.630Z,59.67
2022-11-10T18:49:14.743Z,63.42
2022-11-10T18:52:01.760Z,66.15
2022-11-10T18:54:48.554Z,58.35
2022-11-10T18:57:37.009Z,60.05
2022-11-10T19:00:23.780Z,58.63
2022-11-10T19:03:10.282Z,76.35
2022-11-10T19:05:59.045Z,130.50
2022-11-10T19:08:46.368Z,134.55
2022-11-10T19:11:34.289Z,119.47
2022-11-10T19:14:22.608Z,131.98
2022-11-10T19:17:09.474Z,124.65
2022-11-10T19:19:56.996Z,104.88
2022-11-10T19:22:43.969Z,100.85
2022-11-10T19:25:31.258Z,96.57
2022-11-10T19:28:17.796Z,99.80
2022-11-10T19:31:08.161Z,92.90
2022-11-10T19:33:56.921Z,94.10
2022-11-10T19:36:43.804Z,89.18
2022-11-10T19:39:30.680Z,74.30
2022-11-10T19:42:17.350Z,86.63
2022-11-10T19:45:04.443Z,81.35
2022-11-10T19:47:52.751Z,75.80
2022-11-10T19:50:39.645Z,77.25
2022-11-10T19:53:26.221Z,67.78
2022-11-10T19:56:15.221Z,68.32
2022-11-10T19:59:02.161Z,61.90
2022-11-10T20:01:48.861Z,60.78
2022-11-10T20:04:57.029Z,68.30
2022-11-10T20:08:04.175Z,66.97
2022-11-10T20:10:54.584Z,74.05
2022-11-10T20:13:41.998Z,76.18
2022-11-10T20:16:29.001Z,79.15
2022-11-10T20:19:15.645Z,78.55
2022-11-10T20:22:03.758Z,81.97
2022-11-10T20:24:51.377Z,75.85
2022-11-10T20:27:37.800Z,82.55
2022-11-10T20:30:24.971Z,77.85
2022-11-10T20:33:11.731Z,72.15
2022-11-10T20:36:05.184Z,77.60
2022-11-10T20:38:54.898Z,75.40
2022-11-10T20:41:41.674Z,78.25
2022-11-10T20:44:28.496Z,72.78
2022-11-10T20:47:15.545Z,73.50
2022-11-10T20:50:02.934Z,81.35
2022-11-10T20:52:50.386Z,76.80
2022-11-10T20:55:55.937Z,77.53
2022-11-10T20:58:43.347Z,68.03
2022-11-10T21:01:30.288Z,85.07
2022-11-10T21:04:17.205Z,83.80
2022-11-10T21:07:04.208Z,81.68
2022-11-10T21:09:50.955Z,81.05
2022-11-10T21:12:50.750Z,83.10
2022-11-10T21:15:40.278Z,76.18
2022-11-10T21:18:28.301Z,74.22
2022-11-10T21:21:22.959Z,72.32
2022-11-10T21:24:10.836Z,69.03
2022-11-10T21:26:58.096Z,67.30
2022-11-10T21:29:46.533Z,68.78
2022-11-10T21:32:33.170Z,75.03
2022-11-10T21:35:19.625Z,70.65
2022-11-10T21:38:06.630Z,61.17
2022-11-10T21:40:53.480Z,48.53
2022-11-10T21:43:40.364Z,56.88
2022-11-10T21:46:29.477Z,49.72
2022-11-10T21:49:15.993Z,50.67
2022-11-10T21:52:02.525Z,50.83
2022-11-10T21:54:48.987Z,52.65
2022-11-10T21:57:35.485Z,45.58
2022-11-10T22:00:22.002Z,52.67
2022-11-10T22:03:09.869Z,43.33
2022-11-10T22:05:56.516Z,48.67
2022-11-10T22:08:44.615Z,53.75
2022-11-10T22:11:48.440Z,53.35
2022-11-10T22:14:52.468Z,46.88
2022-11-10T22:17:56.433Z,56.03
2022-11-10T22:20:44.576Z,44.85
2022-11-10T22:23:48.536Z,53.40
2022-11-10T22:26:35.237Z,52.70
2022-11-10T22:29:22.095Z,43.80
2022-11-10T22:32:08.960Z,46.22
2022-11-10T22:34:55.767Z,50.92
2022-11-10T22:37:44.165Z,47.50
2022-11-10T22:40:48.435Z,49.33
2022-11-10T22:43:52.238Z,49.15
2022-11-10T22:46:40.819Z,44.88
2022-11-10T22:49:27.354Z,48.80
2022-11-10T22:52:13.922Z,53.72
2022-11-10T22:55:01.942Z,43.67
2022-11-10T22:57:48.906Z,53.03
2022-11-10T23:00:35.596Z,52.85
2022-11-10T23:03:22.478Z,55.00
2022-11-10T23:06:10.119Z,56.70
2022-11-10T23:08:57.545Z,49.50
2022-11-10T23:11:45.467Z,53.97
2022-11-10T23:14:31.937Z,54.97
2022-11-10T23:17:18.519Z,54.97
2022-11-10T23:20:05.486Z,53.67
2022-11-10T23:22:52.035Z,50.63
2022-11-10T23:25:38.566Z,51.55
2022-11-10T23:28:27.997Z,50.28
2022-11-10T23:31:16.797Z,48.60
2022-11-10T23:34:03.133Z,53.28
2022-11-10T23:36:49.845Z,48.45
2022-11-10T23:39:36.539Z,51.55
2022-11-10T23:42:22.947Z,52.17
2022-11-10T23:45:11.875Z,50.85
2022-11-10T23:48:01.879Z,60.92
2022-11-10T23:50:51.513Z,58.33
2022-11-10T23:53:38.150Z,61.78
2022-11-10T23:56:24.940Z,61.38
2022-11-10T23:59:11.539Z,62.72
